Time;durP1;ratioP1;P1;durP2;ratioP2;P2;SDS_P1;SDS_P2;PMS_P1;PMS_P2;Temp;Humidity;BMP_temperature;BMP_pressure;BME280_temperature;BME280_humidity;BME280_pressure;Samples;Min_cycle;Max_cycle;Signal;HPM_P1;HPM_P2
2022/04/19 00:01:07;;;;;;;;;;;6.80;99.90;;;;;;5044479;28;20102;-69
2022/04/19 00:03:34;;;;;;;;;;;6.70;99.90;;;;;;5044725;28;19921;-72
2022/04/19 00:06:00;;;;;;;;;;;6.70;99.90;;;;;;5044167;28;20230;-69
2022/04/19 00:08:27;;;;;;;;;;;6.60;99.90;;;;;;5044493;28;19956;-69
2022/04/19 00:10:54;;;;;;;;;;;6.60;99.90;;;;;;5044450;28;20163;-69
2022/04/19 00:13:20;;;;;;;;;;;6.50;99.90;;;;;;5044818;28;19988;-69
2022/04/19 00:15:47;;;;;;;;;;;6.50;99.90;;;;;;5044145;28;20120;-69
2022/04/19 00:18:15;;;;;;;;;;;6.50;99.90;;;;;;5044405;28;19921;-69
2022/04/19 00:20:43;;;;;;;;;;;6.40;99.90;;;;;;5044239;28;19921;-69
2022/04/19 00:23:12;;;;;;;;;;;6.40;99.90;;;;;;5044390;28;19927;-69
2022/04/19 00:25:39;;;;;;;;;;;6.30;99.90;;;;;;5043214;28;19921;-69
2022/04/19 00:28:06;;;;;;;;;;;6.30;99.90;;;;;;5044227;28;19921;-69
2022/04/19 00:30:32;;;;;;;;;;;6.20;99.90;;;;;;5043868;28;19921;-69
2022/04/19 00:33:00;;;;;;;;;;;6.20;99.90;;;;;;5043111;28;19928;-69
2022/04/19 00:35:29;;;;;;;;;;;6.10;99.90;;;;;;5043781;28;19921;-69
2022/04/19 00:37:55;;;;;;;;;;;6.10;99.90;;;;;;5043787;28;19921;-69
2022/04/19 00:40:22;;;;;;;;;;;6.00;99.90;;;;;;5043863;28;19979;-69
2022/04/19 00:42:49;;;;;;;;;;;6.00;99.90;;;;;;5043747;28;20171;-69
2022/04/19 00:45:15;;;;;;;;;;;6.00;99.90;;;;;;5043353;28;20156;-69
2022/04/19 00:47:42;;;;;;;;;;;6.00;99.90;;;;;;5043496;28;19921;-69
2022/04/19 00:50:09;;;;;;;;;;;5.90;99.90;;;;;;5043052;28;19921;-69
2022/04/19 00:52:38;;;;;;;;;;;6.00;99.90;;;;;;5043956;28;20216;-69
2022/04/19 00:55:07;;;;;;;;;;;5.90;99.90;;;;;;5043490;28;19975;-69
2022/04/19 00:57:34;;;;;;;;;;;5.90;99.90;;;;;;5043416;28;19921;-69
2022/04/19 01:00:01;;;;;;;;;;;5.90;99.90;;;;;;5043701;28;20120;-69
2022/04/19 01:02:27;;;;;;;;;;;5.80;99.90;;;;;;5043627;28;19943;-71
2022/04/19 01:04:56;;;;;;;;;;;5.80;99.90;;;;;;5043781;28;19928;-69
2022/04/19 01:07:23;;;;;;;;;;;5.70;99.90;;;;;;5062307;23;19909;-92
2022/04/19 01:09:51;;;;;;;;;;;5.60;99.90;;;;;;5058123;28;19928;-92
2022/04/19 01:15:03;;;;;;;;;;;6.00;99.90;;;;;;5058270;28;19932;-92
2022/04/19 01:17:30;;;;;;;;;;;5.40;99.90;;;;;;5058079;28;19973;-91
2022/04/19 01:19:57;;;;;;;;;;;5.40;99.90;;;;;;5057972;28;19909;-92
2022/04/19 01:22:25;;;;;;;;;;;6.00;99.90;;;;;;5057936;28;19913;-91
2022/04/19 01:24:52;;;;;;;;;;;5.60;99.90;;;;;;5058336;28;19913;-92
2022/04/19 01:27:18;;;;;;;;;;;5.40;99.90;;;;;;5057967;28;19913;-91
2022/04/19 01:29:45;;;;;;;;;;;5.50;99.90;;;;;;5057904;28;19917;-92
2022/04/19 01:32:13;;;;;;;;;;;5.60;99.90;;;;;;5057053;28;19913;-92
2022/04/19 01:34:40;;;;;;;;;;;5.50;99.90;;;;;;5057900;28;19909;-91
2022/04/19 01:37:06;;;;;;;;;;;5.20;99.90;;;;;;5057708;28;19919;-92
2022/04/19 01:42:19;;;;;;;;;;;5.20;99.90;;;;;;5058088;28;19927;-92
2022/04/19 01:44:45;;;;;;;;;;;5.40;99.90;;;;;;5058101;28;19969;-92
2022/04/19 01:47:13;;;;;;;;;;;5.20;99.90;;;;;;5057654;28;19929;-92
2022/04/19 01:49:40;;;;;;;;;;;5.20;99.90;;;;;;5057846;28;19929;-91
2022/04/19 01:52:08;;;;;;;;;;;5.20;99.90;;;;;;5057926;28;19972;-90
2022/04/19 01:54:36;;;;;;;;;;;5.20;99.90;;;;;;5057753;28;19914;-92
2022/04/19 01:57:03;;;;;;;;;;;5.20;99.90;;;;;;5058172;28;19973;-92
2022/04/19 01:59:30;;;;;;;;;;;5.20;99.90;;;;;;5061907;28;19909;-92
2022/04/19 02:01:57;;;;;;;;;;;5.20;99.90;;;;;;5061517;28;19984;-91
2022/04/19 02:04:23;;;;;;;;;;;5.40;99.90;;;;;;5061666;28;19944;-92
2022/04/19 02:06:50;;;;;;;;;;;5.10;99.90;;;;;;5061107;28;19913;-92
2022/04/19 02:09:17;;;;;;;;;;;5.10;99.90;;;;;;5061519;28;19909;-92
2022/04/19 02:11:45;;;;;;;;;;;5.10;99.90;;;;;;5061423;28;19972;-92
2022/04/19 02:14:11;;;;;;;;;;;5.00;99.90;;;;;;5061533;28;19948;-92
2022/04/19 02:16:38;;;;;;;;;;;5.20;99.90;;;;;;5061111;28;19973;-93
2022/04/19 02:19:05;;;;;;;;;;;5.30;99.90;;;;;;5061353;28;19909;-93
2022/04/19 02:21:32;;;;;;;;;;;4.70;99.90;;;;;;5061131;28;19944;-92
2022/04/19 02:23:58;;;;;;;;;;;4.70;99.90;;;;;;5061101;28;19953;-95
2022/04/19 02:26:25;;;;;;;;;;;4.60;99.90;;;;;;5060976;28;19947;-92
2022/04/19 02:28:53;;;;;;;;;;;4.60;99.90;;;;;;5061064;28;19976;-92
2022/04/19 02:31:20;;;;;;;;;;;4.60;99.90;;;;;;5060253;28;19929;-92
2022/04/19 02:33:47;;;;;;;;;;;4.60;99.90;;;;;;5061138;28;19976;-92
2022/04/19 02:36:13;;;;;;;;;;;4.70;99.90;;;;;;5060742;28;19965;-92
2022/04/19 02:38:40;;;;;;;;;;;4.70;99.90;;;;;;5060968;28;19948;-92
2022/04/19 02:41:07;;;;;;;;;;;4.70;99.90;;;;;;5060875;28;19928;-91
2022/04/19 02:43:34;;;;;;;;;;;4.70;99.90;;;;;;5060006;28;19909;-92
2022/04/19 02:46:02;;;;;;;;;;;4.70;99.90;;;;;;5060575;28;19909;-92
2022/04/19 02:48:30;;;;;;;;;;;4.70;99.90;;;;;;5060776;28;19932;-91
2022/04/19 02:50:57;;;;;;;;;;;4.70;99.90;;;;;;5060632;28;19913;-95
2022/04/19 02:53:24;;;;;;;;;;;4.70;99.90;;;;;;5060695;28;19915;-92
2022/04/19 02:55:50;;;;;;;;;;;4.90;99.90;;;;;;5060593;28;19916;-93
2022/04/19 02:58:17;;;;;;;;;;;4.60;99.90;;;;;;5060461;28;19909;-92
2022/04/19 03:00:44;;;;;;;;;;;4.70;99.90;;;;;;5060386;28;19939;-92
2022/04/19 03:03:12;;;;;;;;;;;4.60;99.90;;;;;;5060528;28;19919;-94
2022/04/19 03:05:40;;;;;;;;;;;4.70;99.90;;;;;;5060171;28;19932;-94
2022/04/19 03:08:07;;;;;;;;;;;4.60;99.90;;;;;;5060019;28;19920;-93
2022/04/19 03:10:33;;;;;;;;;;;4.50;99.90;;;;;;5059423;28;19916;-94
2022/04/19 03:13:01;;;;;;;;;;;4.50;99.90;;;;;;5060230;28;19972;-94
2022/04/19 03:15:28;;;;;;;;;;;4.40;99.90;;;;;;5060028;28;19909;-94
2022/04/19 03:17:55;;;;;;;;;;;4.80;99.90;;;;;;5060353;28;19973;-91
2022/04/19 03:20:23;;;;;;;;;;;4.30;99.90;;;;;;5059983;28;19980;-93
2022/04/19 03:28:18;;;;;;;;;;;4.70;99.90;;;;;;5060208;28;19916;-94
2022/04/19 03:30:46;;;;;;;;;;;4.00;99.90;;;;;;5059187;28;19937;-94
2022/04/19 03:33:12;;;;;;;;;;;4.00;99.90;;;;;;5059819;28;19915;-94
2022/04/19 03:35:41;;;;;;;;;;;4.60;99.90;;;;;;5059436;28;19952;-94
2022/04/19 03:38:08;;;;;;;;;;;4.10;99.90;;;;;;5059893;28;19917;-94
2022/04/19 03:40:35;;;;;;;;;;;4.00;99.90;;;;;;5059670;28;19909;-94
2022/04/19 03:43:02;;;;;;;;;;;4.00;99.90;;;;;;5058933;28;19939;-94
2022/04/19 03:45:29;;;;;;;;;;;4.00;99.90;;;;;;5059400;28;19925;-94
2022/04/19 03:47:56;;;;;;;;;;;4.40;99.90;;;;;;5059508;28;19988;-94
2022/04/19 03:50:25;;;;;;;;;;;4.20;99.90;;;;;;5059302;28;19937;-95
2022/04/19 03:52:53;;;;;;;;;;;4.10;99.90;;;;;;5059431;28;19913;-94
2022/04/19 03:55:20;;;;;;;;;;;4.00;99.90;;;;;;5059101;28;19925;-94
2022/04/19 03:57:47;;;;;;;;;;;4.00;99.90;;;;;;5059308;28;19972;-94
2022/04/19 04:00:14;;;;;;;;;;;4.00;99.90;;;;;;5059181;28;19909;-94
2022/04/19 04:02:40;;;;;;;;;;;3.90;99.90;;;;;;5059083;28;19919;-94
2022/04/19 04:05:07;;;;;;;;;;;4.60;99.90;;;;;;5058991;28;19976;-95
2022/04/19 04:07:37;;;;;;;;;;;3.90;99.90;;;;;;5059033;28;19964;-95
2022/04/19 04:10:05;;;;;;;;;;;3.90;99.90;;;;;;5059069;28;19909;-94
2022/04/19 04:12:32;;;;;;;;;;;3.90;99.90;;;;;;5059039;28;19977;-95
2022/04/19 04:15:00;;;;;;;;;;;4.00;99.90;;;;;;5059043;28;20019;-95
2022/04/19 04:17:27;;;;;;;;;;;3.80;99.90;;;;;;5058715;28;19913;-95
2022/04/19 04:19:54;;;;;;;;;;;3.80;99.90;;;;;;5058677;28;19972;-95
2022/04/19 04:22:21;;;;;;;;;;;3.70;99.90;;;;;;5058789;28;19947;-95
2022/04/19 04:24:47;;;;;;;;;;;3.70;99.90;;;;;;5058714;28;19913;-95
2022/04/19 04:27:15;;;;;;;;;;;3.70;99.90;;;;;;5058636;28;19940;-96
2022/04/19 04:29:42;;;;;;;;;;;3.90;99.90;;;;;;5058596;28;19940;-96
2022/04/19 04:32:09;;;;;;;;;;;3.70;99.90;;;;;;5057764;28;19932;-95
2022/04/19 04:34:36;;;;;;;;;;;3.70;99.90;;;;;;5058806;28;19977;-95
2022/04/19 04:37:02;;;;;;;;;;;4.20;99.90;;;;;;5058460;28;19909;-96
2022/04/19 04:39:29;;;;;;;;;;;3.60;99.90;;;;;;5058703;28;19913;-96
2022/04/19 04:41:56;;;;;;;;;;;2.90;99.90;;;;;;5058776;28;19914;-96
2022/04/19 04:44:24;;;;;;;;;;;3.60;99.90;;;;;;5058622;28;19920;-96
2022/04/19 04:49:39;;;;;;;;;;;4.80;99.90;;;;;;5058684;28;19975;-96
2022/04/19 04:52:07;;;;;;;;;;;3.60;99.90;;;;;;5058466;28;19932;-96
2022/04/19 04:54:34;;;;;;;;;;;3.60;99.90;;;;;;5058345;28;19913;-96
2022/04/19 04:57:01;;;;;;;;;;;3.60;99.90;;;;;;5058140;28;19933;-96
2022/04/19 04:59:30;;;;;;;;;;;4.40;99.90;;;;;;5058356;28;19913;-96
2022/04/19 05:01:57;;;;;;;;;;;3.70;99.90;;;;;;5058374;28;19913;-96
2022/04/19 05:04:24;;;;;;;;;;;4.40;99.90;;;;;;5058238;28;20263;-96
2022/04/19 05:06:50;;;;;;;;;;;4.00;99.90;;;;;;5058085;28;19917;-96
2022/04/19 05:09:17;;;;;;;;;;;5.10;99.90;;;;;;5058184;28;19933;-96
2022/04/19 05:11:46;;;;;;;;;;;3.70;99.90;;;;;;5058181;28;19929;-96
2022/04/19 05:14:13;;;;;;;;;;;3.70;99.90;;;;;;5058236;28;19964;-96
2022/04/19 05:16:42;;;;;;;;;;;3.80;99.90;;;;;;5057890;28;19910;-96
2022/04/19 05:19:08;;;;;;;;;;;4.50;99.90;;;;;;5058087;28;19936;-96
2022/04/19 05:21:37;;;;;;;;;;;3.80;99.90;;;;;;5058185;28;19989;-95
2022/04/19 05:24:04;;;;;;;;;;;4.70;99.90;;;;;;5057971;28;19909;-96
2022/04/19 05:26:31;;;;;;;;;;;3.90;99.90;;;;;;5057728;28;19921;-95
2022/04/19 05:28:57;;;;;;;;;;;4.80;99.90;;;;;;5057869;28;19915;-95
2022/04/19 05:31:24;;;;;;;;;;;4.00;99.90;;;;;;5057528;28;19940;-95
2022/04/19 05:33:52;;;;;;;;;;;4.80;99.90;;;;;;5057730;28;19920;-96
2022/04/19 05:36:19;;;;;;;;;;;4.10;99.90;;;;;;5057716;28;19952;-95
2022/04/19 05:38:49;;;;;;;;;;;4.20;99.90;;;;;;5058007;28;19916;-95
2022/04/19 05:41:15;;;;;;;;;;;4.40;99.90;;;;;;5057763;28;19913;-96
2022/04/19 05:43:42;;;;;;;;;;;4.20;99.90;;;;;;5056974;28;19969;-94
2022/04/19 05:46:09;;;;;;;;;;;4.30;99.90;;;;;;5057607;28;19976;-96
2022/04/19 05:48:35;;;;;;;;;;;3.20;99.90;;;;;;5057864;28;19913;-96
2022/04/19 05:51:03;;;;;;;;;;;4.70;99.90;;;;;;5057737;28;19940;-94
2022/04/19 05:53:30;;;;;;;;;;;4.50;99.90;;;;;;5057793;28;19977;-93
2022/04/19 05:55:57;;;;;;;;;;;4.60;99.90;;;;;;5057520;28;19971;-95
2022/04/19 05:58:24;;;;;;;;;;;4.70;99.90;;;;;;5057640;28;19985;-93
2022/04/19 06:00:50;;;;;;;;;;;4.80;99.90;;;;;;5057875;28;19985;-92
2022/04/19 06:06:05;;;;;;;;;;;4.90;99.90;;;;;;5057774;28;19976;-92
2022/04/19 06:08:33;;;;;;;;;;;6.00;99.90;;;;;;5057513;28;19913;-94
2022/04/19 06:11:00;;;;;;;;;;;5.00;99.90;;;;;;5057579;28;19913;-94
2022/04/19 06:13:27;;;;;;;;;;;5.00;99.90;;;;;;5057938;28;19916;-93
2022/04/19 06:15:54;;;;;;;;;;;5.00;99.90;;;;;;5057284;28;19917;-92
2022/04/19 06:18:21;;;;;;;;;;;5.10;99.90;;;;;;5057579;28;19932;-92
2022/04/19 06:20:50;;;;;;;;;;;5.20;99.90;;;;;;5057295;28;19972;-93
2022/04/19 06:23:16;;;;;;;;;;;5.20;99.90;;;;;;5057411;28;19921;-92
2022/04/19 06:25:44;;;;;;;;;;;5.40;99.90;;;;;;5056511;28;19968;-92
2022/04/19 06:28:11;;;;;;;;;;;5.50;99.90;;;;;;5057572;28;19988;-92
2022/04/19 06:30:38;;;;;;;;;;;5.60;99.90;;;;;;5057321;28;19992;-92
2022/04/19 06:33:05;;;;;;;;;;;5.70;99.90;;;;;;5057422;28;19919;-92
2022/04/19 06:35:31;;;;;;;;;;;5.80;99.90;;;;;;5057065;28;19939;-92
2022/04/19 06:37:58;;;;;;;;;;;5.80;99.90;;;;;;5057364;28;19981;-91
2022/04/19 06:40:25;;;;;;;;;;;6.20;99.90;;;;;;5057118;28;19937;-94
2022/04/19 06:42:57;;;;;;;;;;;6.00;99.90;;;;;;5057199;28;19929;-92
2022/04/19 06:45:23;;;;;;;;;;;6.70;99.90;;;;;;5059514;28;19909;-92
2022/04/19 06:47:56;;;;;;;;;;;6.20;99.90;;;;;;5060842;28;19928;-94
2022/04/19 06:50:23;;;;;;;;;;;6.90;99.90;;;;;;5060737;28;19921;-92
2022/04/19 06:52:51;;;;;;;;;;;6.90;99.90;;;;;;5060704;28;19909;-93
2022/04/19 06:55:19;;;;;;;;;;;6.70;99.90;;;;;;5060433;28;19977;-92
2022/04/19 06:57:46;;;;;;;;;;;6.80;99.90;;;;;;5060625;28;19944;-92
2022/04/19 07:00:15;;;;;;;;;;;6.90;99.90;;;;;;5060488;28;19913;-92
2022/04/19 07:02:44;;;;;;;;;;;7.00;99.90;;;;;;5060676;28;19973;-91
2022/04/19 07:05:11;;;;;;;;;;;7.10;99.90;;;;;;5060371;28;19929;-91
2022/04/19 07:07:39;;;;;;;;;;;7.10;99.90;;;;;;5060136;28;19956;-91
2022/04/19 07:10:06;;;;;;;;;;;7.20;99.90;;;;;;5060153;28;19922;-91
2022/04/19 07:12:33;;;;;;;;;;;7.30;99.90;;;;;;5060156;28;19992;-92
2022/04/19 07:15:00;;;;;;;;;;;7.30;99.90;;;;;;5060276;28;19981;-90
2022/04/19 07:17:28;;;;;;;;;;;7.50;99.90;;;;;;5060298;28;19964;-91
2022/04/19 07:28:14;;;;;;;;;;;8.00;99.90;;;;;;5059648;28;19924;-92
2022/04/19 07:30:40;;;;;;;;;;;8.00;99.90;;;;;;5058401;28;19925;-92
2022/04/19 07:33:08;;;;;;;;;;;8.10;99.90;;;;;;5057937;28;19985;-91
2022/04/19 07:35:35;;;;;;;;;;;8.20;99.90;;;;;;5059263;28;19939;-91
2022/04/19 07:38:02;;;;;;;;;;;8.40;99.90;;;;;;5059520;28;19936;-91
2022/04/19 07:40:30;;;;;;;;;;;8.50;99.90;;;;;;5059937;28;19909;-91
2022/04/19 07:42:56;;;;;;;;;;;8.60;99.90;;;;;;5059976;28;19913;-91
2022/04/19 07:45:23;;;;;;;;;;;8.70;99.90;;;;;;5059406;28;19916;-91
2022/04/19 07:47:50;;;;;;;;;;;8.90;99.90;;;;;;5059580;28;19909;-91
2022/04/19 07:50:18;;;;;;;;;;;9.00;99.90;;;;;;5059516;28;19961;-91
2022/04/19 07:52:45;;;;;;;;;;;9.60;99.90;;;;;;5059626;28;19940;-90
2022/04/19 07:55:11;;;;;;;;;;;9.40;99.90;;;;;;5058925;28;19909;-91
2022/04/19 07:57:38;;;;;;;;;;;9.80;99.90;;;;;;5059418;28;19916;-91
2022/04/19 08:00:06;;;;;;;;;;;9.60;99.90;;;;;;5059234;28;19977;-90
2022/04/19 08:02:32;;;;;;;;;;;9.80;99.90;;;;;;5059275;28;19924;-91
2022/04/19 08:04:59;;;;;;;;;;;9.90;99.90;;;;;;5059160;28;19913;-90
2022/04/19 08:07:27;;;;;;;;;;;10.10;99.90;;;;;;5059070;28;19909;-92
2022/04/19 08:09:55;;;;;;;;;;;10.20;99.90;;;;;;5059323;28;19932;-91
2022/04/19 08:12:22;;;;;;;;;;;10.40;99.90;;;;;;5059391;28;19964;-90
2022/04/19 08:14:48;;;;;;;;;;;10.50;99.90;;;;;;5059178;28;19915;-90
2022/04/19 08:17:15;;;;;;;;;;;10.60;99.90;;;;;;5059024;28;19913;-90
2022/04/19 08:19:42;;;;;;;;;;;10.70;99.90;;;;;;5058911;28;19977;-91
2022/04/19 08:22:09;;;;;;;;;;;10.80;99.90;;;;;;5059036;28;19968;-91
2022/04/19 08:24:37;;;;;;;;;;;10.90;99.90;;;;;;5058271;28;19913;-91
2022/04/19 08:27:04;;;;;;;;;;;11.00;99.90;;;;;;5058672;28;19988;-91
2022/04/19 08:29:32;;;;;;;;;;;11.00;99.90;;;;;;5058717;28;19933;-92
2022/04/19 08:31:59;;;;;;;;;;;11.00;99.90;;;;;;5058844;28;19936;-90
2022/04/19 08:34:26;;;;;;;;;;;11.00;99.90;;;;;;5058781;28;19913;-91
2022/04/19 08:36:53;;;;;;;;;;;11.20;99.90;;;;;;5058557;28;19915;-91
2022/04/19 08:39:19;;;;;;;;;;;11.40;99.90;;;;;;5058551;28;19964;-91
2022/04/19 08:41:49;;;;;;;;;;;11.30;99.90;;;;;;5058375;28;19933;-91
2022/04/19 08:44:15;;;;;;;;;;;11.40;99.90;;;;;;5058730;28;19915;-91
2022/04/19 08:46:43;;;;;;;;;;;11.30;99.90;;;;;;5058206;28;19923;-91
2022/04/19 08:49:10;;;;;;;;;;;11.40;99.90;;;;;;5058421;28;19957;-91
2022/04/19 08:51:40;;;;;;;;;;;11.40;99.90;;;;;;5058539;28;19932;-90
2022/04/19 08:59:38;;;;;;;;;;;11.60;99.90;;;;;;5058431;28;19932;-90
2022/04/19 09:02:06;;;;;;;;;;;11.70;99.90;;;;;;5058256;28;19972;-91
2022/04/19 09:04:33;;;;;;;;;;;11.70;99.90;;;;;;5058181;28;19972;-91
2022/04/19 09:07:00;;;;;;;;;;;11.80;99.90;;;;;;5057119;28;19972;-91
2022/04/19 09:09:27;;;;;;;;;;;11.80;99.90;;;;;;5058086;28;19976;-92
2022/04/19 09:12:05;;;;;;;;;;;12.20;99.90;;;;;;5058102;28;19940;-91
2022/04/19 09:14:32;;;;;;;;;;;11.90;99.90;;;;;;5058383;28;19921;-91
2022/04/19 09:17:04;;;;;;;;;;;11.90;99.90;;;;;;5057927;28;19940;-91
2022/04/19 09:19:30;;;;;;;;;;;12.00;99.90;;;;;;5058028;28;19973;-91
2022/04/19 09:21:57;;;;;;;;;;;12.20;99.90;;;;;;5058069;28;19924;-91
2022/04/19 09:24:25;;;;;;;;;;;12.30;99.90;;;;;;5056936;28;19973;-91
2022/04/19 09:26:52;;;;;;;;;;;12.30;99.90;;;;;;5057628;28;19917;-90
2022/04/19 09:29:21;;;;;;;;;;;12.50;99.90;;;;;;5057921;28;19924;-91
2022/04/19 09:31:50;;;;;;;;;;;12.50;99.90;;;;;;5057747;28;19910;-90
2022/04/19 09:34:23;;;;;;;;;;;12.60;99.90;;;;;;5057855;28;19910;-90
2022/04/19 09:36:53;;;;;;;;;;;12.60;99.90;;;;;;5057733;28;19964;-91
2022/04/19 09:39:25;;;;;;;;;;;12.60;99.90;;;;;;5057972;28;19932;-90
2022/04/19 09:42:00;;;;;;;;;;;12.80;99.90;;;;;;5057619;28;19948;-91
2022/04/19 09:44:29;;;;;;;;;;;12.80;99.90;;;;;;5057912;28;19972;-91
2022/04/19 09:47:02;;;;;;;;;;;12.80;99.90;;;;;;5057327;28;19944;-92
2022/04/19 09:49:41;;;;;;;;;;;12.90;99.80;;;;;;5057741;28;19909;-90
2022/04/19 09:52:07;;;;;;;;;;;13.00;99.90;;;;;;5057772;28;19914;-90
2022/04/19 09:54:34;;;;;;;;;;;13.00;99.90;;;;;;5057657;28;19913;-91
2022/04/19 09:57:07;;;;;;;;;;;13.50;99.90;;;;;;5057398;28;19988;-91
2022/04/19 09:59:38;;;;;;;;;;;13.10;99.70;;;;;;5057651;28;19954;-90
2022/04/19 10:08:14;;;;;;;;;;;13.30;98.10;;;;;;5016969;28;19978;-91
2022/04/19 10:10:41;;;;;;;;;;;13.40;98.80;;;;;;5017011;28;19918;-91
2022/04/19 10:13:08;;;;;;;;;;;13.60;98.50;;;;;;5039769;28;19968;-90
2022/04/19 10:15:37;;;;;;;;;;;13.60;98.20;;;;;;5057201;28;19916;-91
2022/04/19 10:18:04;;;;;;;;;;;13.60;99.20;;;;;;5058223;28;19913;-91
2022/04/19 10:20:32;;;;;;;;;;;13.80;98.90;;;;;;5061243;28;19969;-91
2022/04/19 10:23:03;;;;;;;;;;;13.80;98.10;;;;;;5061171;28;19932;-91
2022/04/19 10:25:40;;;;;;;;;;;13.80;98.50;;;;;;5059875;28;19913;-91
2022/04/19 10:28:08;;;;;;;;;;;14.00;98.20;;;;;;5061056;28;19942;-90
2022/04/19 10:30:37;;;;;;;;;;;14.10;96.00;;;;;;5061072;28;19913;-91
2022/04/19 10:33:18;;;;;;;;;;;14.20;96.50;;;;;;5061089;28;19944;-90
2022/04/19 10:36:00;;;;;;;;;;;14.40;97.30;;;;;;5060664;28;19976;-91
2022/04/19 10:38:27;;;;;;;;;;;14.60;97.00;;;;;;5060818;28;19928;-90
2022/04/19 10:40:54;;;;;;;;;;;14.70;96.20;;;;;;5060798;28;19980;-89
2022/04/19 10:43:22;;;;;;;;;;;14.80;96.10;;;;;;5060973;28;19936;-91
2022/04/19 10:45:51;;;;;;;;;;;14.90;95.20;;;;;;5060585;28;19909;-91
2022/04/19 10:48:17;;;;;;;;;;;15.00;96.50;;;;;;5060862;28;19932;-90
2022/04/19 10:50:50;;;;;;;;;;;15.20;95.60;;;;;;5060901;28;19968;-91
2022/04/19 10:53:17;;;;;;;;;;;15.20;95.30;;;;;;5060806;28;19932;-90
2022/04/19 10:55:58;;;;;;;;;;;15.30;95.30;;;;;;5060537;28;19917;-90
2022/04/19 10:58:38;;;;;;;;;;;15.40;94.20;;;;;;5060680;28;19909;-90
2022/04/19 11:01:10;;;;;;;;;;;16.00;93.50;;;;;;5060648;28;19916;-90
2022/04/19 11:03:44;;;;;;;;;;;15.60;94.80;;;;;;5060614;28;19941;-91
2022/04/19 11:06:25;;;;;;;;;;;15.70;93.30;;;;;;5060376;28;19948;-91
2022/04/19 11:09:05;;;;;;;;;;;15.80;93.90;;;;;;5054078;28;19992;-89
2022/04/19 11:11:44;;;;;;;;;;;15.80;92.60;;;;;;5037513;28;19992;-87
2022/04/19 11:14:18;;;;;;;;;;;15.70;91.90;;;;;;5028956;28;19992;-89
2022/04/19 11:16:46;;;;;;;;;;;15.60;92.20;;;;;;5029638;28;19961;-89
2022/04/19 11:19:14;;;;;;;;;;;15.70;93.70;;;;;;5031205;28;19985;-88
2022/04/19 11:21:52;;;;;;;;;;;15.90;92.70;;;;;;5039624;28;19921;-89
2022/04/19 11:24:37;;;;;;;;;;;16.10;93.50;;;;;;5043841;28;20004;-87
2022/04/19 11:27:04;;;;;;;;;;;16.20;92.40;;;;;;5046905;28;19927;-91
2022/04/19 11:29:46;;;;;;;;;;;16.10;92.40;;;;;;5048587;28;20000;-88
2022/04/19 11:32:23;;;;;;;;;;;15.90;92.00;;;;;;5046277;28;20344;-89
2022/04/19 11:35:01;;;;;;;;;;;16.00;92.30;;;;;;5048762;28;19948;-88
2022/04/19 11:37:30;;;;;;;;;;;15.90;91.60;;;;;;5043746;28;19921;-88
2022/04/19 11:48:30;;;;;;;;;;;16.40;92.00;;;;;;5040792;28;19928;-89
2022/04/19 11:51:06;;;;;;;;;;;16.50;92.30;;;;;;5044753;28;20028;-87
2022/04/19 11:53:32;;;;;;;;;;;16.60;91.50;;;;;;5045279;28;19920;-88
2022/04/19 11:55:59;;;;;;;;;;;16.60;90.10;;;;;;5046896;28;19921;-90
2022/04/19 11:58:26;;;;;;;;;;;16.60;89.80;;;;;;5043861;28;19948;-87
2022/04/19 12:00:56;;;;;;;;;;;16.60;88.30;;;;;;5038135;28;19988;-87
2022/04/19 12:03:24;;;;;;;;;;;16.60;89.60;;;;;;5043729;28;19996;-88
2022/04/19 12:05:54;;;;;;;;;;;16.50;88.70;;;;;;5041603;28;20059;-89
2022/04/19 12:08:31;;;;;;;;;;;16.50;89.90;;;;;;5046544;28;19988;-88
2022/04/19 12:10:59;;;;;;;;;;;16.60;88.90;;;;;;5046166;28;19921;-89
2022/04/19 12:13:26;;;;;;;;;;;16.60;91.30;;;;;;5045970;28;19928;-85
2022/04/19 12:15:52;;;;;;;;;;;16.80;90.50;;;;;;5045556;28;19992;-87
2022/04/19 12:18:30;;;;;;;;;;;17.00;91.10;;;;;;5045824;28;20009;-90
2022/04/19 12:20:58;;;;;;;;;;;17.40;90.40;;;;;;5026929;28;20094;-89
2022/04/19 12:23:24;;;;;;;;;;;17.70;89.10;;;;;;5026724;28;20124;-90
2022/04/19 12:25:58;;;;;;;;;;;17.90;89.00;;;;;;5026437;28;19953;-91
2022/04/19 12:28:34;;;;;;;;;;;18.20;89.10;;;;;;5030364;28;19925;-89
2022/04/19 12:31:00;;;;;;;;;;;18.30;90.00;;;;;;5029667;28;19956;-91
2022/04/19 12:33:27;;;;;;;;;;;18.30;89.10;;;;;;5042845;28;19944;-91
2022/04/19 12:35:54;;;;;;;;;;;18.10;88.80;;;;;;5049867;28;19949;-90
2022/04/19 12:38:29;;;;;;;;;;;17.90;89.00;;;;;;5051084;28;19980;-90
2022/04/19 12:40:55;;;;;;;;;;;17.80;88.20;;;;;;5051716;28;19976;-91
2022/04/19 12:43:42;;;;;;;;;;;17.70;87.20;;;;;;5050498;28;19985;-91
2022/04/19 12:46:08;;;;;;;;;;;17.40;85.50;;;;;;5032722;28;19921;-91
2022/04/19 12:48:35;;;;;;;;;;;16.90;86.00;;;;;;5030847;28;19921;-92
2022/04/19 12:51:02;;;;;;;;;;;17.10;87.30;;;;;;5031123;28;19983;-90
2022/04/19 12:53:32;;;;;;;;;;;17.40;88.90;;;;;;5044572;28;19933;-91
2022/04/19 12:59:02;;;;;;;;;;;17.70;85.60;;;;;;5035135;28;19932;-91
2022/04/19 13:01:29;;;;;;;;;;;18.00;87.70;;;;;;5049883;28;19940;-91
2022/04/19 13:03:55;;;;;;;;;;;18.30;86.40;;;;;;5049610;28;19929;-90
2022/04/19 13:14:36;;;;;;;;;;;19.30;85.00;;;;;;5051285;28;19923;-90
2022/04/19 13:17:03;;;;;;;;;;;19.30;84.60;;;;;;5054931;28;19976;-91
2022/04/19 13:19:30;;;;;;;;;;;19.10;84.10;;;;;;5054772;28;19921;-91
2022/04/19 13:21:57;;;;;;;;;;;18.70;85.70;;;;;;5046840;28;19948;-91
2022/04/19 13:24:25;;;;;;;;;;;18.60;86.80;;;;;;5050995;28;19921;-91
2022/04/19 13:26:52;;;;;;;;;;;18.20;83.50;;;;;;5048620;28;19921;-90
2022/04/19 13:29:18;;;;;;;;;;;18.00;83.30;;;;;;5052173;28;19921;-90
2022/04/19 13:31:45;;;;;;;;;;;18.10;81.40;;;;;;5042869;28;19988;-90
2022/04/19 13:34:12;;;;;;;;;;;18.50;82.00;;;;;;5040999;28;19989;-90
2022/04/19 13:36:39;;;;;;;;;;;18.80;80.50;;;;;;5044035;28;19952;-89
2022/04/19 13:39:06;;;;;;;;;;;19.10;81.70;;;;;;5047098;28;19989;-90
2022/04/19 13:41:36;;;;;;;;;;;18.90;81.70;;;;;;5041433;28;19922;-90
2022/04/19 13:44:03;;;;;;;;;;;18.80;81.50;;;;;;5042892;28;19921;-90
2022/04/19 13:46:30;;;;;;;;;;;18.70;80.80;;;;;;5034678;28;19959;-86
2022/04/19 13:48:59;;;;;;;;;;;18.80;82.20;;;;;;5044508;28;19950;-89
2022/04/19 13:51:26;;;;;;;;;;;18.70;82.70;;;;;;5041759;28;19921;-91
2022/04/19 13:53:53;;;;;;;;;;;18.90;83.20;;;;;;5053454;28;19997;-91
2022/04/19 13:56:19;;;;;;;;;;;19.30;80.50;;;;;;5052844;28;19921;-90
2022/04/19 13:58:48;;;;;;;;;;;19.40;80.20;;;;;;5054330;28;19989;-90
2022/04/19 14:01:16;;;;;;;;;;;19.50;78.40;;;;;;5056339;28;20148;-89
2022/04/19 14:03:42;;;;;;;;;;;19.40;78.80;;;;;;5055619;28;20335;-90
2022/04/19 14:06:09;;;;;;;;;;;19.20;80.00;;;;;;5055547;28;19985;-90
2022/04/19 14:08:36;;;;;;;;;;;19.10;81.40;;;;;;5038788;28;19984;-91
2022/04/19 14:11:02;;;;;;;;;;;19.00;81.20;;;;;;5043548;28;19921;-90
2022/04/19 14:13:29;;;;;;;;;;;18.60;82.40;;;;;;5054190;28;19984;-90
2022/04/19 14:15:57;;;;;;;;;;;18.30;83.50;;;;;;5050616;28;19976;-90
2022/04/19 14:18:24;;;;;;;;;;;18.10;82.60;;;;;;5055636;28;19937;-90
2022/04/19 14:20:51;;;;;;;;;;;17.80;84.00;;;;;;5053445;28;19927;-90
2022/04/19 14:23:18;;;;;;;;;;;17.40;83.80;;;;;;5053647;28;19921;-89
2022/04/19 14:25:45;;;;;;;;;;;17.20;84.60;;;;;;5054394;28;19984;-90
2022/04/19 14:28:12;;;;;;;;;;;17.00;84.90;;;;;;5057199;28;19989;-90
2022/04/19 14:33:25;;;;;;;;;;;16.60;85.10;;;;;;5050596;28;19924;-90
2022/04/19 14:35:56;;;;;;;;;;;16.50;85.90;;;;;;5049294;28;19921;-91
2022/04/19 14:38:22;;;;;;;;;;;16.30;86.30;;;;;;5054623;28;19948;-92
2022/04/19 14:40:51;;;;;;;;;;;16.20;86.80;;;;;;5052935;28;19977;-91
2022/04/19 14:43:18;;;;;;;;;;;16.30;87.80;;;;;;5055899;28;19941;-89
2022/04/19 14:45:44;;;;;;;;;;;16.20;87.60;;;;;;5049797;28;20008;-91
2022/04/19 14:48:11;;;;;;;;;;;16.00;86.50;;;;;;5054271;28;19924;-91
2022/04/19 14:53:20;;;;;;;;;;;15.90;86.80;;;;;;5046589;28;19927;-91
2022/04/19 14:55:46;;;;;;;;;;;15.80;87.00;;;;;;5049640;28;19943;-90
2022/04/19 14:58:13;;;;;;;;;;;15.60;86.20;;;;;;5050959;28;20242;-91
2022/04/19 15:00:40;;;;;;;;;;;15.60;86.30;;;;;;5050755;28;19983;-90
2022/04/19 15:03:06;;;;;;;;;;;15.60;87.00;;;;;;5049949;28;19928;-91
2022/04/19 15:05:33;;;;;;;;;;;15.60;86.60;;;;;;5049040;28;19996;-89
2022/04/19 15:08:01;;;;;;;;;;;15.70;86.70;;;;;;5049260;28;19921;-90
2022/04/19 15:10:28;;;;;;;;;;;15.90;85.70;;;;;;5048792;28;20230;-91
2022/04/19 15:12:55;;;;;;;;;;;16.00;86.60;;;;;;5050528;28;19989;-90
2022/04/19 15:15:21;;;;;;;;;;;16.10;85.20;;;;;;5049813;28;19932;-90
2022/04/19 15:17:49;;;;;;;;;;;16.20;85.30;;;;;;5049825;28;19928;-91
2022/04/19 15:20:15;;;;;;;;;;;16.30;83.50;;;;;;5049102;28;19925;-91
2022/04/19 15:22:42;;;;;;;;;;;16.20;84.10;;;;;;5044322;28;19921;-90
2022/04/19 15:25:20;;;;;;;;;;;16.10;82.50;;;;;;5050184;28;19968;-89
2022/04/19 15:27:46;;;;;;;;;;;16.20;81.20;;;;;;5048252;28;19951;-86
2022/04/19 15:30:13;;;;;;;;;;;16.60;82.20;;;;;;5048996;28;19949;-91